sensor_id;sensor_type;location;lat;lon;timestamp;P1;durP1;ratioP1;P2;durP2;ratioP2
72095;SDS011;59968;51.084;16.748;2023-02-11T00:02:14;37.50;;;15.40;;
72095;SDS011;59968;51.084;16.748;2023-02-11T00:04:43;31.90;;;12.80;;
72095;SDS011;59968;51.084;16.748;2023-02-11T00:07:11;40.00;;;15.90;;
72095;SDS011;59968;51.084;16.748;2023-02-11T00:09:40;33.50;;;14.10;;
72095;SDS011;59968;51.084;16.748;2023-02-11T00:12:09;37.10;;;14.00;;
72095;SDS011;59968;51.084;16.748;2023-02-11T00:14:51;38.90;;;15.90;;
72095;SDS011;59968;51.084;16.748;2023-02-11T00:17:20;35.60;;;14.50;;
72095;SDS011;59968;51.084;16.748;2023-02-11T00:19:50;37.90;;;14.30;;
72095;SDS011;59968;51.084;16.748;2023-02-11T00:22:19;29.20;;;12.80;;
72095;SDS011;59968;51.084;16.748;2023-02-11T00:24:48;32.90;;;13.00;;
72095;SDS011;59968;51.084;16.748;2023-02-11T00:27:18;42.00;;;15.50;;
72095;SDS011;59968;51.084;16.748;2023-02-11T00:29:46;26.60;;;11.60;;
72095;SDS011;59968;51.084;16.748;2023-02-11T00:32:15;34.70;;;14.90;;
72095;SDS011;59968;51.084;16.748;2023-02-11T00:34:44;37.00;;;14.50;;
72095;SDS011;59968;51.084;16.748;2023-02-11T00:37:13;29.30;;;12.20;;
72095;SDS011;59968;51.084;16.748;2023-02-11T00:39:42;33.10;;;13.90;;
72095;SDS011;59968;51.084;16.748;2023-02-11T00:42:12;37.20;;;14.50;;
72095;SDS011;59968;51.084;16.748;2023-02-11T00:44:45;31.90;;;13.80;;
72095;SDS011;59968;51.084;16.748;2023-02-11T00:47:17;36.10;;;14.70;;
72095;SDS011;59968;51.084;16.748;2023-02-11T00:49:45;33.00;;;14.80;;
72095;SDS011;59968;51.084;16.748;2023-02-11T00:52:14;34.50;;;14.60;;
72095;SDS011;59968;51.084;16.748;2023-02-11T00:54:43;34.10;;;14.90;;
72095;SDS011;59968;51.084;16.748;2023-02-11T00:57:11;39.70;;;15.60;;
72095;SDS011;59968;51.084;16.748;2023-02-11T00:59:40;33.80;;;14.30;;
72095;SDS011;59968;51.084;16.748;2023-02-11T01:02:09;30.40;;;13.50;;
72095;SDS011;59968;51.084;16.748;2023-02-11T01:04:38;37.50;;;16.00;;
72095;SDS011;59968;51.084;16.748;2023-02-11T01:07:07;35.30;;;14.40;;
72095;SDS011;59968;51.084;16.748;2023-02-11T01:09:37;36.10;;;16.00;;
72095;SDS011;59968;51.084;16.748;2023-02-11T01:12:06;37.70;;;16.00;;
72095;SDS011;59968;51.084;16.748;2023-02-11T01:14:35;35.70;;;14.00;;
72095;SDS011;59968;51.084;16.748;2023-02-11T01:17:05;35.60;;;15.40;;
72095;SDS011;59968;51.084;16.748;2023-02-11T01:19:35;36.20;;;14.80;;
72095;SDS011;59968;51.084;16.748;2023-02-11T01:22:06;30.20;;;13.70;;
72095;SDS011;59968;51.084;16.748;2023-02-11T01:24:35;31.70;;;13.10;;
72095;SDS011;59968;51.084;16.748;2023-02-11T01:27:05;19.40;;;8.60;;
72095;SDS011;59968;51.084;16.748;2023-02-11T01:29:34;33.90;;;14.50;;
72095;SDS011;59968;51.084;16.748;2023-02-11T01:32:03;31.70;;;13.20;;
72095;SDS011;59968;51.084;16.748;2023-02-11T01:34:32;30.30;;;12.00;;
72095;SDS011;59968;51.084;16.748;2023-02-11T01:37:01;31.50;;;13.10;;
72095;SDS011;59968;51.084;16.748;2023-02-11T01:39:31;27.90;;;10.70;;
72095;SDS011;59968;51.084;16.748;2023-02-11T01:42:01;29.20;;;12.60;;
72095;SDS011;59968;51.084;16.748;2023-02-11T01:44:31;31.10;;;13.10;;
72095;SDS011;59968;51.084;16.748;2023-02-11T01:47:03;31.30;;;13.70;;
72095;SDS011;59968;51.084;16.748;2023-02-11T01:49:34;28.10;;;11.60;;
72095;SDS011;59968;51.084;16.748;2023-02-11T01:52:11;33.00;;;13.80;;
72095;SDS011;59968;51.084;16.748;2023-02-11T01:54:48;35.30;;;13.90;;
72095;SDS011;59968;51.084;16.748;2023-02-11T01:57:38;32.00;;;13.20;;
72095;SDS011;59968;51.084;16.748;2023-02-11T02:00:21;27.10;;;11.60;;
72095;SDS011;59968;51.084;16.748;2023-02-11T02:05:31;32.30;;;13.00;;
72095;SDS011;59968;51.084;16.748;2023-02-11T02:10:38;31.90;;;13.30;;
72095;SDS011;59968;51.084;16.748;2023-02-11T02:13:10;33.80;;;11.20;;
72095;SDS011;59968;51.084;16.748;2023-02-11T02:15:40;29.00;;;11.60;;
72095;SDS011;59968;51.084;16.748;2023-02-11T02:35:11;20.80;;;8.10;;
72095;SDS011;59968;51.084;16.748;2023-02-11T02:43:30;25.80;;;11.00;;
72095;SDS011;59968;51.084;16.748;2023-02-11T02:46:14;25.10;;;10.30;;
72095;SDS011;59968;51.084;16.748;2023-02-11T02:48:48;29.00;;;12.10;;
72095;SDS011;59968;51.084;16.748;2023-02-11T02:56:49;25.90;;;11.70;;
72095;SDS011;59968;51.084;16.748;2023-02-11T03:02:41;23.80;;;8.80;;
72095;SDS011;59968;51.084;16.748;2023-02-11T03:08:39;30.50;;;12.60;;
72095;SDS011;59968;51.084;16.748;2023-02-11T03:11:14;27.80;;;11.90;;
72095;SDS011;59968;51.084;16.748;2023-02-11T03:13:45;29.80;;;12.20;;
72095;SDS011;59968;51.084;16.748;2023-02-11T03:16:20;29.00;;;12.00;;
72095;SDS011;59968;51.084;16.748;2023-02-11T03:19:00;26.90;;;12.30;;
72095;SDS011;59968;51.084;16.748;2023-02-11T03:21:33;24.40;;;9.30;;
72095;SDS011;59968;51.084;16.748;2023-02-11T03:24:06;28.80;;;12.40;;
72095;SDS011;59968;51.084;16.748;2023-02-11T03:26:39;27.20;;;12.10;;
72095;SDS011;59968;51.084;16.748;2023-02-11T03:36:53;27.70;;;11.50;;
72095;SDS011;59968;51.084;16.748;2023-02-11T03:39:30;25.00;;;11.50;;
72095;SDS011;59968;51.084;16.748;2023-02-11T03:42:05;25.80;;;11.10;;
72095;SDS011;59968;51.084;16.748;2023-02-11T03:44:39;27.00;;;10.70;;
72095;SDS011;59968;51.084;16.748;2023-02-11T03:47:12;28.80;;;12.00;;
72095;SDS011;59968;51.084;16.748;2023-02-11T03:49:42;25.70;;;11.80;;
72095;SDS011;59968;51.084;16.748;2023-02-11T03:52:14;25.60;;;10.60;;
72095;SDS011;59968;51.084;16.748;2023-02-11T03:54:45;26.10;;;10.70;;
72095;SDS011;59968;51.084;16.748;2023-02-11T03:57:18;27.80;;;12.00;;
72095;SDS011;59968;51.084;16.748;2023-02-11T03:59:50;27.60;;;11.50;;
72095;SDS011;59968;51.084;16.748;2023-02-11T04:02:38;24.50;;;10.60;;
72095;SDS011;59968;51.084;16.748;2023-02-11T04:05:08;29.30;;;12.60;;
72095;SDS011;59968;51.084;16.748;2023-02-11T04:07:39;24.50;;;11.00;;
72095;SDS011;59968;51.084;16.748;2023-02-11T04:10:08;21.40;;;10.30;;
72095;SDS011;59968;51.084;16.748;2023-02-11T04:12:38;25.30;;;10.20;;
72095;SDS011;59968;51.084;16.748;2023-02-11T04:15:07;26.20;;;11.10;;
72095;SDS011;59968;51.084;16.748;2023-02-11T04:17:36;23.00;;;9.70;;
72095;SDS011;59968;51.084;16.748;2023-02-11T04:20:05;26.40;;;10.00;;
72095;SDS011;59968;51.084;16.748;2023-02-11T04:22:35;24.80;;;10.00;;
72095;SDS011;59968;51.084;16.748;2023-02-11T04:25:04;24.60;;;10.60;;
72095;SDS011;59968;51.084;16.748;2023-02-11T04:27:33;20.30;;;8.90;;
72095;SDS011;59968;51.084;16.748;2023-02-11T04:30:03;19.90;;;8.70;;
72095;SDS011;59968;51.084;16.748;2023-02-11T04:32:32;20.60;;;9.30;;
72095;SDS011;59968;51.084;16.748;2023-02-11T04:35:01;23.80;;;9.70;;
72095;SDS011;59968;51.084;16.748;2023-02-11T04:37:30;24.80;;;10.90;;
72095;SDS011;59968;51.084;16.748;2023-02-11T04:39:58;20.20;;;9.00;;
72095;SDS011;59968;51.084;16.748;2023-02-11T04:42:27;25.80;;;11.70;;
72095;SDS011;59968;51.084;16.748;2023-02-11T04:44:55;23.10;;;11.20;;
72095;SDS011;59968;51.084;16.748;2023-02-11T04:47:24;26.20;;;10.80;;
72095;SDS011;59968;51.084;16.748;2023-02-11T04:49:52;24.10;;;10.70;;
72095;SDS011;59968;51.084;16.748;2023-02-11T04:52:20;27.40;;;11.00;;
72095;SDS011;59968;51.084;16.748;2023-02-11T04:54:49;27.70;;;10.80;;
72095;SDS011;59968;51.084;16.748;2023-02-11T04:57:17;32.00;;;12.50;;
72095;SDS011;59968;51.084;16.748;2023-02-11T04:59:46;25.10;;;10.00;;
72095;SDS011;59968;51.084;16.748;2023-02-11T05:02:14;27.70;;;10.80;;
72095;SDS011;59968;51.084;16.748;2023-02-11T05:04:43;22.20;;;9.60;;
72095;SDS011;59968;51.084;16.748;2023-02-11T05:07:12;26.60;;;11.00;;
72095;SDS011;59968;51.084;16.748;2023-02-11T05:09:41;27.20;;;10.60;;
72095;SDS011;59968;51.084;16.748;2023-02-11T05:12:10;25.20;;;10.90;;
72095;SDS011;59968;51.084;16.748;2023-02-11T05:14:39;21.60;;;9.60;;
72095;SDS011;59968;51.084;16.748;2023-02-11T05:17:07;25.10;;;10.90;;
72095;SDS011;59968;51.084;16.748;2023-02-11T05:19:36;24.20;;;10.20;;
72095;SDS011;59968;51.084;16.748;2023-02-11T05:22:04;24.00;;;10.20;;
72095;SDS011;59968;51.084;16.748;2023-02-11T05:24:33;27.00;;;11.40;;
72095;SDS011;59968;51.084;16.748;2023-02-11T05:27:02;27.60;;;11.80;;
72095;SDS011;59968;51.084;16.748;2023-02-11T05:29:30;28.80;;;11.90;;
72095;SDS011;59968;51.084;16.748;2023-02-11T05:31:58;24.40;;;11.10;;
72095;SDS011;59968;51.084;16.748;2023-02-11T05:34:27;25.40;;;11.40;;
72095;SDS011;59968;51.084;16.748;2023-02-11T05:36:55;30.90;;;12.90;;
72095;SDS011;59968;51.084;16.748;2023-02-11T05:39:24;29.00;;;12.10;;
72095;SDS011;59968;51.084;16.748;2023-02-11T05:41:52;26.40;;;12.90;;
72095;SDS011;59968;51.084;16.748;2023-02-11T05:44:20;23.40;;;10.50;;
72095;SDS011;59968;51.084;16.748;2023-02-11T05:46:49;27.80;;;12.30;;
72095;SDS011;59968;51.084;16.748;2023-02-11T05:49:17;29.50;;;13.00;;
72095;SDS011;59968;51.084;16.748;2023-02-11T05:51:46;26.70;;;11.50;;
72095;SDS011;59968;51.084;16.748;2023-02-11T05:54:14;28.90;;;12.70;;
72095;SDS011;59968;51.084;16.748;2023-02-11T05:56:43;24.50;;;11.40;;
72095;SDS011;59968;51.084;16.748;2023-02-11T05:59:13;22.90;;;9.20;;
72095;SDS011;59968;51.084;16.748;2023-02-11T06:01:42;24.50;;;10.80;;
72095;SDS011;59968;51.084;16.748;2023-02-11T06:04:10;27.40;;;11.90;;
72095;SDS011;59968;51.084;16.748;2023-02-11T06:06:39;28.70;;;12.30;;
72095;SDS011;59968;51.084;16.748;2023-02-11T06:09:08;28.40;;;12.20;;
72095;SDS011;59968;51.084;16.748;2023-02-11T06:11:38;27.90;;;11.90;;
72095;SDS011;59968;51.084;16.748;2023-02-11T06:14:06;24.20;;;10.30;;
72095;SDS011;59968;51.084;16.748;2023-02-11T06:16:36;25.20;;;10.60;;
72095;SDS011;59968;51.084;16.748;2023-02-11T06:19:04;28.50;;;11.90;;
72095;SDS011;59968;51.084;16.748;2023-02-11T06:21:33;22.60;;;9.40;;
72095;SDS011;59968;51.084;16.748;2023-02-11T06:24:11;27.60;;;11.20;;
72095;SDS011;59968;51.084;16.748;2023-02-11T06:26:39;24.70;;;10.40;;
72095;SDS011;59968;51.084;16.748;2023-02-11T06:29:08;24.90;;;10.90;;
72095;SDS011;59968;51.084;16.748;2023-02-11T06:31:37;22.20;;;10.30;;
72095;SDS011;59968;51.084;16.748;2023-02-11T06:34:07;27.50;;;11.00;;
72095;SDS011;59968;51.084;16.748;2023-02-11T06:36:37;29.70;;;11.90;;
72095;SDS011;59968;51.084;16.748;2023-02-11T06:39:08;26.40;;;11.90;;
72095;SDS011;59968;51.084;16.748;2023-02-11T06:41:37;23.80;;;10.40;;
72095;SDS011;59968;51.084;16.748;2023-02-11T06:44:06;27.40;;;12.00;;
72095;SDS011;59968;51.084;16.748;2023-02-11T06:46:35;24.90;;;9.40;;
72095;SDS011;59968;51.084;16.748;2023-02-11T06:49:04;28.10;;;11.40;;
72095;SDS011;59968;51.084;16.748;2023-02-11T06:51:33;25.10;;;11.80;;
72095;SDS011;59968;51.084;16.748;2023-02-11T06:54:03;24.90;;;11.90;;
72095;SDS011;59968;51.084;16.748;2023-02-11T06:56:32;26.30;;;10.80;;
72095;SDS011;59968;51.084;16.748;2023-02-11T06:59:01;30.30;;;12.40;;
72095;SDS011;59968;51.084;16.748;2023-02-11T07:01:30;29.50;;;12.70;;
72095;SDS011;59968;51.084;16.748;2023-02-11T07:03:59;30.40;;;13.30;;
72095;SDS011;59968;51.084;16.748;2023-02-11T07:06:28;27.30;;;12.70;;
72095;SDS011;59968;51.084;16.748;2023-02-11T07:08:57;29.20;;;12.30;;
72095;SDS011;59968;51.084;16.748;2023-02-11T07:11:26;25.20;;;10.90;;
72095;SDS011;59968;51.084;16.748;2023-02-11T07:14:05;26.90;;;11.40;;
72095;SDS011;59968;51.084;16.748;2023-02-11T07:16:35;29.70;;;13.00;;
72095;SDS011;59968;51.084;16.748;2023-02-11T07:19:06;24.50;;;10.10;;
72095;SDS011;59968;51.084;16.748;2023-02-11T07:21:34;20.10;;;8.90;;
72095;SDS011;59968;51.084;16.748;2023-02-11T07:24:07;28.00;;;11.60;;
72095;SDS011;59968;51.084;16.748;2023-02-11T07:26:38;29.70;;;12.10;;
72095;SDS011;59968;51.084;16.748;2023-02-11T07:29:09;27.90;;;12.00;;
72095;SDS011;59968;51.084;16.748;2023-02-11T07:31:37;26.30;;;11.50;;
72095;SDS011;59968;51.084;16.748;2023-02-11T07:34:06;23.60;;;10.70;;
72095;SDS011;59968;51.084;16.748;2023-02-11T07:36:36;24.90;;;11.00;;
72095;SDS011;59968;51.084;16.748;2023-02-11T07:39:05;27.20;;;12.10;;
72095;SDS011;59968;51.084;16.748;2023-02-11T07:41:34;25.50;;;11.20;;
72095;SDS011;59968;51.084;16.748;2023-02-11T07:44:05;26.80;;;11.40;;
72095;SDS011;59968;51.084;16.748;2023-02-11T07:46:34;27.00;;;11.80;;
72095;SDS011;59968;51.084;16.748;2023-02-11T07:49:03;24.40;;;10.90;;
72095;SDS011;59968;51.084;16.748;2023-02-11T07:51:32;25.60;;;11.10;;
72095;SDS011;59968;51.084;16.748;2023-02-11T07:54:01;29.50;;;11.50;;
72095;SDS011;59968;51.084;16.748;2023-02-11T07:56:31;27.70;;;10.70;;
72095;SDS011;59968;51.084;16.748;2023-02-11T07:59:00;26.70;;;11.60;;
72095;SDS011;59968;51.084;16.748;2023-02-11T08:01:30;32.40;;;12.50;;
72095;SDS011;59968;51.084;16.748;2023-02-11T08:04:00;31.80;;;11.90;;
72095;SDS011;59968;51.084;16.748;2023-02-11T08:06:31;23.50;;;10.00;;
72095;SDS011;59968;51.084;16.748;2023-02-11T08:09:05;23.70;;;10.70;;
72095;SDS011;59968;51.084;16.748;2023-02-11T08:11:36;23.70;;;10.10;;
72095;SDS011;59968;51.084;16.748;2023-02-11T08:14:07;16.60;;;7.50;;
72095;SDS011;59968;51.084;16.748;2023-02-11T08:16:37;17.00;;;8.60;;
72095;SDS011;59968;51.084;16.748;2023-02-11T08:19:09;22.40;;;9.50;;
72095;SDS011;59968;51.084;16.748;2023-02-11T08:21:41;23.10;;;9.20;;
72095;SDS011;59968;51.084;16.748;2023-02-11T08:24:10;20.70;;;8.40;;
72095;SDS011;59968;51.084;16.748;2023-02-11T08:26:40;20.50;;;8.00;;
72095;SDS011;59968;51.084;16.748;2023-02-11T08:29:11;21.20;;;8.30;;
72095;SDS011;59968;51.084;16.748;2023-02-11T08:31:43;20.40;;;9.90;;
72095;SDS011;59968;51.084;16.748;2023-02-11T08:34:14;18.70;;;8.80;;
72095;SDS011;59968;51.084;16.748;2023-02-11T08:36:46;21.10;;;9.10;;
72095;SDS011;59968;51.084;16.748;2023-02-11T08:39:17;16.10;;;7.00;;
72095;SDS011;59968;51.084;16.748;2023-02-11T08:41:49;18.40;;;8.20;;
72095;SDS011;59968;51.084;16.748;2023-02-11T08:44:19;17.30;;;7.90;;
72095;SDS011;59968;51.084;16.748;2023-02-11T08:46:50;25.30;;;10.40;;
72095;SDS011;59968;51.084;16.748;2023-02-11T08:49:20;20.70;;;8.10;;
72095;SDS011;59968;51.084;16.748;2023-02-11T08:51:49;15.30;;;7.10;;
72095;SDS011;59968;51.084;16.748;2023-02-11T08:54:18;20.90;;;8.20;;
72095;SDS011;59968;51.084;16.748;2023-02-11T08:56:49;21.50;;;9.70;;
72095;SDS011;59968;51.084;16.748;2023-02-11T08:59:20;24.20;;;9.70;;
72095;SDS011;59968;51.084;16.748;2023-02-11T09:01:48;25.50;;;10.20;;
72095;SDS011;59968;51.084;16.748;2023-02-11T09:04:17;21.50;;;8.80;;
72095;SDS011;59968;51.084;16.748;2023-02-11T09:06:46;25.70;;;10.80;;
72095;SDS011;59968;51.084;16.748;2023-02-11T09:09:15;19.60;;;7.90;;
72095;SDS011;59968;51.084;16.748;2023-02-11T09:11:44;23.80;;;10.90;;
72095;SDS011;59968;51.084;16.748;2023-02-11T09:14:18;23.70;;;10.20;;
72095;SDS011;59968;51.084;16.748;2023-02-11T09:20:28;24.90;;;10.60;;
72095;SDS011;59968;51.084;16.748;2023-02-11T09:22:57;21.90;;;9.50;;
72095;SDS011;59968;51.084;16.748;2023-02-11T09:25:26;20.90;;;9.70;;
72095;SDS011;59968;51.084;16.748;2023-02-11T09:27:56;25.20;;;9.70;;
72095;SDS011;59968;51.084;16.748;2023-02-11T09:30:25;19.20;;;8.50;;
72095;SDS011;59968;51.084;16.748;2023-02-11T09:32:53;24.80;;;9.30;;
72095;SDS011;59968;51.084;16.748;2023-02-11T09:35:22;19.90;;;8.70;;
72095;SDS011;59968;51.084;16.748;2023-02-11T09:37:52;17.20;;;7.70;;
72095;SDS011;59968;51.084;16.748;2023-02-11T09:40:21;22.30;;;8.90;;
72095;SDS011;59968;51.084;16.748;2023-02-11T09:45:23;16.90;;;8.00;;
72095;SDS011;59968;51.084;16.748;2023-02-11T09:47:55;21.00;;;8.60;;
72095;SDS011;59968;51.084;16.748;2023-02-11T09:50:34;19.00;;;7.70;;
72095;SDS011;59968;51.084;16.748;2023-02-11T09:53:17;19.20;;;8.70;;
72095;SDS011;59968;51.084;16.748;2023-02-11T09:56:01;18.40;;;7.90;;
72095;SDS011;59968;51.084;16.748;2023-02-11T09:58:39;13.70;;;5.90;;
72095;SDS011;59968;51.084;16.748;2023-02-11T10:03:53;13.60;;;6.90;;
72095;SDS011;59968;51.084;16.748;2023-02-11T10:12:02;13.60;;;6.50;;
72095;SDS011;59968;51.084;16.748;2023-02-11T10:15:00;15.60;;;7.00;;
72095;SDS011;59968;51.084;16.748;2023-02-11T10:18:11;18.10;;;7.30;;
72095;SDS011;59968;51.084;16.748;2023-02-11T10:23:35;18.10;;;8.40;;
72095;SDS011;59968;51.084;16.748;2023-02-11T10:26:12;14.90;;;7.50;;
72095;SDS011;59968;51.084;16.748;2023-02-11T10:28:48;17.00;;;7.50;;
72095;SDS011;59968;51.084;16.748;2023-02-11T10:31:25;20.40;;;9.20;;
72095;SDS011;59968;51.084;16.748;2023-02-11T10:34:16;19.20;;;8.40;;
72095;SDS011;59968;51.084;16.748;2023-02-11T10:36:45;18.90;;;8.00;;
72095;SDS011;59968;51.084;16.748;2023-02-11T10:41:52;19.90;;;7.90;;
72095;SDS011;59968;51.084;16.748;2023-02-11T10:44:31;19.10;;;7.00;;
72095;SDS011;59968;51.084;16.748;2023-02-11T10:47:05;19.10;;;8.90;;
72095;SDS011;59968;51.084;16.748;2023-02-11T10:49:41;18.70;;;8.60;;
72095;SDS011;59968;51.084;16.748;2023-02-11T10:54:39;15.40;;;6.20;;
72095;SDS011;59968;51.084;16.748;2023-02-11T10:57:11;16.30;;;8.00;;
72095;SDS011;59968;51.084;16.748;2023-02-11T10:59:46;20.20;;;7.20;;
72095;SDS011;59968;51.084;16.748;2023-02-11T11:04:47;18.80;;;8.00;;
72095;SDS011;59968;51.084;16.748;2023-02-11T11:07:17;17.30;;;8.30;;
72095;SDS011;59968;51.084;16.748;2023-02-11T11:09:54;20.80;;;8.80;;
72095;SDS011;59968;51.084;16.748;2023-02-11T11:12:51;16.40;;;7.30;;
72095;SDS011;59968;51.084;16.748;2023-02-11T11:15:27;17.10;;;7.70;;
72095;SDS011;59968;51.084;16.748;2023-02-11T11:18:17;17.20;;;8.20;;
72095;SDS011;59968;51.084;16.748;2023-02-11T11:20:59;17.20;;;7.00;;
72095;SDS011;59968;51.084;16.748;2023-02-11T11:23:31;24.70;;;9.70;;
72095;SDS011;59968;51.084;16.748;2023-02-11T11:26:05;18.50;;;7.90;;
72095;SDS011;59968;51.084;16.748;2023-02-11T11:28:41;16.70;;;7.00;;
72095;SDS011;59968;51.084;16.748;2023-02-11T11:31:23;20.60;;;7.20;;
72095;SDS011;59968;51.084;16.748;2023-02-11T11:33:56;16.40;;;7.50;;
72095;SDS011;59968;51.084;16.748;2023-02-11T11:36:33;17.30;;;7.50;;
72095;SDS011;59968;51.084;16.748;2023-02-11T11:39:24;13.80;;;6.30;;
72095;SDS011;59968;51.084;16.748;2023-02-11T11:41:58;19.30;;;8.40;;
72095;SDS011;59968;51.084;16.748;2023-02-11T11:44:29;16.10;;;7.00;;
72095;SDS011;59968;51.084;16.748;2023-02-11T11:55:17;19.10;;;9.10;;
72095;SDS011;59968;51.084;16.748;2023-02-11T11:57:49;17.80;;;8.60;;
72095;SDS011;59968;51.084;16.748;2023-02-11T12:00:20;22.50;;;8.90;;
72095;SDS011;59968;51.084;16.748;2023-02-11T12:03:03;19.20;;;7.80;;
72095;SDS011;59968;51.084;16.748;2023-02-11T12:06:01;19.00;;;8.70;;
72095;SDS011;59968;51.084;16.748;2023-02-11T12:12:01;18.30;;;8.00;;
72095;SDS011;59968;51.084;16.748;2023-02-11T12:14:46;21.20;;;9.60;;
72095;SDS011;59968;51.084;16.748;2023-02-11T12:26:26;18.40;;;7.40;;
72095;SDS011;59968;51.084;16.748;2023-02-11T12:52:06;23.70;;;9.90;;
72095;SDS011;59968;51.084;16.748;2023-02-11T12:54:56;18.10;;;8.10;;
72095;SDS011;59968;51.084;16.748;2023-02-11T12:57:30;23.90;;;10.20;;
72095;SDS011;59968;51.084;16.748;2023-02-11T13:00:06;19.70;;;8.80;;
72095;SDS011;59968;51.084;16.748;2023-02-11T13:03:05;16.50;;;8.20;;
72095;SDS011;59968;51.084;16.748;2023-02-11T13:08:25;14.30;;;7.50;;
72095;SDS011;59968;51.084;16.748;2023-02-11T13:11:00;17.60;;;8.10;;
72095;SDS011;59968;51.084;16.748;2023-02-11T13:13:37;21.30;;;7.90;;
72095;SDS011;59968;51.084;16.748;2023-02-11T13:24:42;18.80;;;8.40;;
72095;SDS011;59968;51.084;16.748;2023-02-11T13:30:33;21.20;;;9.20;;
72095;SDS011;59968;51.084;16.748;2023-02-11T13:38:34;16.20;;;8.40;;
72095;SDS011;59968;51.084;16.748;2023-02-11T13:46:50;17.20;;;7.70;;
72095;SDS011;59968;51.084;16.748;2023-02-11T13:49:35;17.30;;;8.50;;
72095;SDS011;59968;51.084;16.748;2023-02-11T13:52:15;19.90;;;8.00;;
72095;SDS011;59968;51.084;16.748;2023-02-11T13:55:03;15.50;;;7.50;;
72095;SDS011;59968;51.084;16.748;2023-02-11T13:57:39;25.60;;;12.30;;
72095;SDS011;59968;51.084;16.748;2023-02-11T14:14:26;36.70;;;18.40;;
72095;SDS011;59968;51.084;16.748;2023-02-11T14:19:32;27.90;;;14.30;;
72095;SDS011;59968;51.084;16.748;2023-02-11T14:22:02;22.60;;;11.80;;
72095;SDS011;59968;51.084;16.748;2023-02-11T14:24:59;33.60;;;18.10;;
72095;SDS011;59968;51.084;16.748;2023-02-11T14:27:33;22.60;;;11.10;;
72095;SDS011;59968;51.084;16.748;2023-02-11T14:33:00;22.30;;;12.30;;
72095;SDS011;59968;51.084;16.748;2023-02-11T14:43:45;22.10;;;11.60;;
72095;SDS011;59968;51.084;16.748;2023-02-11T14:46:18;36.10;;;16.20;;
72095;SDS011;59968;51.084;16.748;2023-02-11T14:48:49;32.10;;;15.10;;
72095;SDS011;59968;51.084;16.748;2023-02-11T14:51:26;29.80;;;16.20;;
72095;SDS011;59968;51.084;16.748;2023-02-11T14:54:03;30.20;;;15.80;;
72095;SDS011;59968;51.084;16.748;2023-02-11T14:56:42;28.00;;;14.50;;
72095;SDS011;59968;51.084;16.748;2023-02-11T14:59:19;22.00;;;11.70;;
72095;SDS011;59968;51.084;16.748;2023-02-11T15:01:50;17.50;;;8.70;;
72095;SDS011;59968;51.084;16.748;2023-02-11T15:04:28;15.50;;;7.70;;
72095;SDS011;59968;51.084;16.748;2023-02-11T15:07:02;21.70;;;10.70;;
72095;SDS011;59968;51.084;16.748;2023-02-11T15:12:19;24.80;;;11.40;;
72095;SDS011;59968;51.084;16.748;2023-02-11T15:14:56;20.60;;;10.50;;
72095;SDS011;59968;51.084;16.748;2023-02-11T15:17:28;28.70;;;15.60;;
72095;SDS011;59968;51.084;16.748;2023-02-11T15:20:00;18.00;;;8.50;;
72095;SDS011;59968;51.084;16.748;2023-02-11T15:22:31;18.40;;;10.80;;
72095;SDS011;59968;51.084;16.748;2023-02-11T15:25:14;17.10;;;8.10;;
72095;SDS011;59968;51.084;16.748;2023-02-11T15:27:46;16.20;;;7.80;;
72095;SDS011;59968;51.084;16.748;2023-02-11T15:32:55;17.90;;;8.10;;
72095;SDS011;59968;51.084;16.748;2023-02-11T15:35:32;13.30;;;7.10;;
72095;SDS011;59968;51.084;16.748;2023-02-11T15:38:04;16.20;;;8.70;;
72095;SDS011;59968;51.084;16.748;2023-02-11T15:40:35;17.90;;;9.00;;
72095;SDS011;59968;51.084;16.748;2023-02-11T15:43:06;15.80;;;6.80;;
72095;SDS011;59968;51.084;16.748;2023-02-11T15:45:37;18.30;;;9.20;;
72095;SDS011;59968;51.084;16.748;2023-02-11T15:50:49;17.30;;;9.30;;
72095;SDS011;59968;51.084;16.748;2023-02-11T15:58:38;20.80;;;10.80;;
72095;SDS011;59968;51.084;16.748;2023-02-11T16:01:10;15.90;;;8.00;;
72095;SDS011;59968;51.084;16.748;2023-02-11T16:03:40;16.70;;;7.30;;
72095;SDS011;59968;51.084;16.748;2023-02-11T16:06:14;17.90;;;9.40;;
72095;SDS011;59968;51.084;16.748;2023-02-11T16:08:59;22.40;;;9.10;;
72095;SDS011;59968;51.084;16.748;2023-02-11T16:11:31;19.40;;;9.30;;
72095;SDS011;59968;51.084;16.748;2023-02-11T16:17:11;13.00;;;6.50;;
72095;SDS011;59968;51.084;16.748;2023-02-11T16:19:51;16.50;;;7.80;;
72095;SDS011;59968;51.084;16.748;2023-02-11T16:22:24;18.00;;;8.80;;
72095;SDS011;59968;51.084;16.748;2023-02-11T16:24:57;22.10;;;10.40;;
72095;SDS011;59968;51.084;16.748;2023-02-11T16:27:28;16.30;;;9.00;;
72095;SDS011;59968;51.084;16.748;2023-02-11T16:30:20;20.10;;;9.80;;
72095;SDS011;59968;51.084;16.748;2023-02-11T16:32:55;21.70;;;10.50;;
72095;SDS011;59968;51.084;16.748;2023-02-11T16:35:24;17.80;;;8.40;;
72095;SDS011;59968;51.084;16.748;2023-02-11T16:37:54;19.60;;;8.80;;
72095;SDS011;59968;51.084;16.748;2023-02-11T16:40:23;17.20;;;9.30;;
72095;SDS011;59968;51.084;16.748;2023-02-11T16:42:53;21.30;;;11.20;;
72095;SDS011;59968;51.084;16.748;2023-02-11T16:45:21;13.40;;;7.10;;
72095;SDS011;59968;51.084;16.748;2023-02-11T16:47:51;23.20;;;11.70;;
72095;SDS011;59968;51.084;16.748;2023-02-11T16:50:21;21.60;;;10.20;;
72095;SDS011;59968;51.084;16.748;2023-02-11T16:52:55;27.90;;;13.80;;
72095;SDS011;59968;51.084;16.748;2023-02-11T16:55:27;18.20;;;9.30;;
72095;SDS011;59968;51.084;16.748;2023-02-11T16:57:57;19.90;;;9.70;;
72095;SDS011;59968;51.084;16.748;2023-02-11T17:00:27;15.50;;;7.50;;
72095;SDS011;59968;51.084;16.748;2023-02-11T17:02:57;17.30;;;9.10;;
72095;SDS011;59968;51.084;16.748;2023-02-11T17:05:26;15.10;;;7.50;;
72095;SDS011;59968;51.084;16.748;2023-02-11T17:07:55;15.20;;;7.40;;
72095;SDS011;59968;51.084;16.748;2023-02-11T17:10:23;16.40;;;7.90;;
72095;SDS011;59968;51.084;16.748;2023-02-11T17:12:53;14.40;;;6.60;;
72095;SDS011;59968;51.084;16.748;2023-02-11T17:15:22;15.70;;;7.70;;
72095;SDS011;59968;51.084;16.748;2023-02-11T17:17:51;16.20;;;7.50;;
72095;SDS011;59968;51.084;16.748;2023-02-11T17:20:20;18.80;;;8.40;;
72095;SDS011;59968;51.084;16.748;2023-02-11T17:22:51;16.90;;;7.60;;
72095;SDS011;59968;51.084;16.748;2023-02-11T17:25:20;13.00;;;6.30;;
72095;SDS011;59968;51.084;16.748;2023-02-11T17:27:50;10.10;;;4.90;;
72095;SDS011;59968;51.084;16.748;2023-02-11T17:30:19;14.90;;;6.80;;
72095;SDS011;59968;51.084;16.748;2023-02-11T17:32:50;17.90;;;8.50;;
72095;SDS011;59968;51.084;16.748;2023-02-11T17:35:18;15.80;;;7.50;;
72095;SDS011;59968;51.084;16.748;2023-02-11T17:37:48;15.20;;;7.60;;
72095;SDS011;59968;51.084;16.748;2023-02-11T17:40:17;17.10;;;8.90;;
72095;SDS011;59968;51.084;16.748;2023-02-11T17:42:46;16.50;;;8.10;;
72095;SDS011;59968;51.084;16.748;2023-02-11T17:45:15;19.00;;;9.90;;
72095;SDS011;59968;51.084;16.748;2023-02-11T17:47:44;18.60;;;10.80;;
72095;SDS011;59968;51.084;16.748;2023-02-11T17:50:16;16.80;;;7.60;;